Time;durP1;ratioP1;P1;durP2;ratioP2;P2;SDS_P1;SDS_P2;PMS_P1;PMS_P2;Temp;Humidity;BMP_temperature;BMP_pressure;BME280_temperature;BME280_humidity;BME280_pressure;Samples;Min_cycle;Max_cycle;Signal;HPM_P1;HPM_P2
2021/04/18 00:00:06;;;;;;;;;;;21.50;29.00;;;;;;497452;239;943;-70
2021/04/18 00:02:07;;;;;;;;;;;21.50;29.00;;;;;;497289;239;1228;-69
2021/04/18 00:04:08;;;;;;;;;;;21.60;29.00;;;;;;497301;240;998;-69
2021/04/18 00:06:09;;;;;;;;;;;21.50;28.90;;;;;;497265;239;1198;-69
2021/04/18 00:08:11;;;;;;;;;;;21.60;29.00;;;;;;497265;239;1150;-69
2021/04/18 00:10:12;;;;;;;;;;;21.40;29.00;;;;;;497309;240;1068;-70
2021/04/18 00:12:13;;;;;;;;;;;21.40;29.00;;;;;;497283;239;1228;-69
2021/04/18 00:14:15;;;;;;;;;;;21.50;29.10;;;;;;497025;239;1002;-70
2021/04/18 00:16:17;;;;;;;;;;;21.40;29.10;;;;;;497361;239;1378;-69
2021/04/18 00:18:17;;;;;;;;;;;21.40;29.10;;;;;;497277;239;2130;-69
2021/04/18 00:20:18;;;;;;;;;;;21.40;29.30;;;;;;497291;239;1114;-70
2021/04/18 00:22:20;;;;;;;;;;;21.40;29.20;;;;;;497301;239;1199;-69
2021/04/18 00:24:21;;;;;;;;;;;21.40;29.20;;;;;;497369;239;1141;-69
2021/04/18 00:26:22;;;;;;;;;;;21.50;29.10;;;;;;497413;239;1108;-69
2021/04/18 00:28:23;;;;;;;;;;;21.50;29.10;;;;;;497304;239;1058;-69
2021/04/18 00:30:25;;;;;;;;;;;21.50;29.20;;;;;;497301;238;975;-70
2021/04/18 00:32:28;;;;;;;;;;;21.50;29.10;;;;;;497304;239;1073;-70
2021/04/18 00:34:29;;;;;;;;;;;21.50;29.20;;;;;;497305;239;1206;-69
2021/04/18 00:36:30;;;;;;;;;;;21.50;29.20;;;;;;497361;239;1179;-70
2021/04/18 00:38:32;;;;;;;;;;;21.40;29.20;;;;;;497259;239;2145;-69
2021/04/18 00:40:33;;;;;;;;;;;21.50;29.20;;;;;;497343;239;993;-70
2021/04/18 00:42:34;;;;;;;;;;;21.50;29.30;;;;;;497322;239;976;-70
2021/04/18 00:44:35;;;;;;;;;;;21.50;29.30;;;;;;497336;239;1027;-69
2021/04/18 00:46:37;;;;;;;;;;;21.40;29.30;;;;;;497358;239;1067;-70
2021/04/18 00:48:38;;;;;;;;;;;21.50;29.20;;;;;;497372;240;1011;-69
2021/04/18 00:50:39;;;;;;;;;;;21.40;29.30;;;;;;497340;239;1173;-69
2021/04/18 00:52:41;;;;;;;;;;;21.50;29.40;;;;;;497309;239;1027;-69
2021/04/18 00:54:42;;;;;;;;;;;21.50;29.10;;;;;;497375;239;993;-69
2021/04/18 00:56:43;;;;;;;;;;;21.60;29.20;;;;;;497322;239;973;-69
2021/04/18 00:58:44;;;;;;;;;;;21.50;29.20;;;;;;497341;239;2181;-69
2021/04/18 01:00:46;;;;;;;;;;;21.50;29.20;;;;;;497322;239;1013;-69
2021/04/18 01:02:47;;;;;;;;;;;21.50;29.30;;;;;;497352;239;1068;-69
2021/04/18 01:04:48;;;;;;;;;;;21.40;29.40;;;;;;497328;239;978;-70
2021/04/18 01:06:50;;;;;;;;;;;21.30;29.40;;;;;;497363;239;1206;-70
2021/04/18 01:08:51;;;;;;;;;;;21.30;29.40;;;;;;497354;239;1099;-69
2021/04/18 01:10:52;;;;;;;;;;;21.50;29.40;;;;;;497328;239;981;-69
2021/04/18 01:12:53;;;;;;;;;;;21.50;29.40;;;;;;497327;239;1157;-70
2021/04/18 01:14:55;;;;;;;;;;;21.40;29.30;;;;;;497288;239;1065;-69
2021/04/18 01:16:56;;;;;;;;;;;21.50;29.20;;;;;;497281;239;1438;-69
2021/04/18 01:18:57;;;;;;;;;;;21.40;29.30;;;;;;497315;239;2137;-69
2021/04/18 01:20:59;;;;;;;;;;;21.40;29.30;;;;;;497399;239;1126;-69
2021/04/18 01:23:00;;;;;;;;;;;21.30;29.50;;;;;;497310;240;1340;-69
2021/04/18 01:25:01;;;;;;;;;;;21.30;29.50;;;;;;497367;239;978;-69
2021/04/18 01:27:04;;;;;;;;;;;21.40;29.40;;;;;;497349;239;1197;-69
2021/04/18 01:29:04;;;;;;;;;;;21.50;29.40;;;;;;497189;239;1405;-69
2021/04/18 01:31:05;;;;;;;;;;;21.40;29.40;;;;;;497214;239;1115;-69
2021/04/18 01:33:06;;;;;;;;;;;21.40;29.40;;;;;;497233;239;1005;-69
2021/04/18 01:35:07;;;;;;;;;;;21.40;29.30;;;;;;497325;239;1060;-69
2021/04/18 01:37:09;;;;;;;;;;;21.40;29.30;;;;;;497266;239;1174;-69
2021/04/18 01:39:10;;;;;;;;;;;21.40;29.50;;;;;;497197;239;2197;-69
2021/04/18 01:41:11;;;;;;;;;;;21.40;29.50;;;;;;497298;239;940;-69
2021/04/18 01:43:13;;;;;;;;;;;21.30;29.50;;;;;;497276;239;1048;-69
2021/04/18 01:45:14;;;;;;;;;;;21.40;29.40;;;;;;497237;239;1087;-69
2021/04/18 01:47:15;;;;;;;;;;;21.50;29.40;;;;;;497225;239;1036;-69
2021/04/18 01:49:17;;;;;;;;;;;21.40;29.50;;;;;;497281;239;971;-69
2021/04/18 01:51:18;;;;;;;;;;;21.40;29.50;;;;;;497353;239;1133;-69
2021/04/18 01:53:19;;;;;;;;;;;21.40;29.50;;;;;;497290;239;1044;-71
2021/04/18 01:55:20;;;;;;;;;;;21.40;29.50;;;;;;497373;239;1036;-70
2021/04/18 01:57:22;;;;;;;;;;;21.50;29.40;;;;;;497303;239;1089;-69
2021/04/18 01:59:23;;;;;;;;;;;21.40;29.40;;;;;;497336;239;2201;-69
2021/04/18 02:01:24;;;;;;;;;;;21.30;29.40;;;;;;497289;239;968;-69
2021/04/18 02:03:25;;;;;;;;;;;21.30;29.50;;;;;;497275;239;1039;-69
2021/04/18 02:05:27;;;;;;;;;;;21.30;29.60;;;;;;497329;239;1061;-70
2021/04/18 02:07:28;;;;;;;;;;;21.20;29.70;;;;;;497285;239;1138;-69
2021/04/18 02:09:30;;;;;;;;;;;21.20;29.60;;;;;;497281;239;998;-69
2021/04/18 02:11:32;;;;;;;;;;;21.30;29.60;;;;;;497297;239;1007;-70
2021/04/18 02:13:33;;;;;;;;;;;21.30;29.70;;;;;;497159;240;1023;-69
2021/04/18 02:15:34;;;;;;;;;;;21.20;29.70;;;;;;497316;239;1056;-69
2021/04/18 02:17:36;;;;;;;;;;;21.30;29.60;;;;;;497263;239;968;-69
2021/04/18 02:19:37;;;;;;;;;;;21.30;29.60;;;;;;497337;239;2181;-70
2021/04/18 02:21:38;;;;;;;;;;;21.30;29.60;;;;;;497170;239;1186;-69
2021/04/18 02:23:39;;;;;;;;;;;21.30;29.60;;;;;;497351;239;1039;-69
2021/04/18 02:25:41;;;;;;;;;;;21.20;29.70;;;;;;497302;239;1023;-69
2021/04/18 02:27:42;;;;;;;;;;;21.30;29.60;;;;;;497403;238;1061;-69
2021/04/18 02:29:43;;;;;;;;;;;21.30;29.70;;;;;;497325;239;974;-69
2021/04/18 02:31:45;;;;;;;;;;;21.20;29.80;;;;;;497275;239;1061;-69
2021/04/18 02:33:46;;;;;;;;;;;21.20;29.80;;;;;;497223;239;1079;-69
2021/04/18 02:35:47;;;;;;;;;;;21.20;29.70;;;;;;497360;239;1038;-69
2021/04/18 02:37:48;;;;;;;;;;;21.30;29.80;;;;;;497380;239;1164;-69
2021/04/18 02:39:50;;;;;;;;;;;21.20;29.80;;;;;;497045;239;2193;-69
2021/04/18 02:41:51;;;;;;;;;;;21.20;29.80;;;;;;497243;239;1098;-70
2021/04/18 02:43:52;;;;;;;;;;;21.20;29.80;;;;;;497277;239;978;-69
2021/04/18 02:45:54;;;;;;;;;;;21.20;29.70;;;;;;497280;239;1040;-69
2021/04/18 02:47:55;;;;;;;;;;;21.20;29.80;;;;;;497355;239;1061;-69
2021/04/18 02:49:56;;;;;;;;;;;21.20;29.80;;;;;;497425;239;1063;-69
2021/04/18 02:51:57;;;;;;;;;;;21.20;29.90;;;;;;497232;239;1141;-70
2021/04/18 02:54:00;;;;;;;;;;;21.40;29.70;;;;;;497272;239;1022;-69
2021/04/18 02:56:00;;;;;;;;;;;21.30;29.70;;;;;;497230;239;1359;-69
2021/04/18 02:58:01;;;;;;;;;;;21.20;29.80;;;;;;497292;239;1051;-69
2021/04/18 03:00:03;;;;;;;;;;;21.20;29.80;;;;;;497340;240;2135;-69
2021/04/18 03:02:04;;;;;;;;;;;21.20;29.90;;;;;;497149;239;1188;-69
2021/04/18 03:04:05;;;;;;;;;;;21.20;29.90;;;;;;497297;239;974;-69
2021/04/18 03:06:06;;;;;;;;;;;21.20;29.90;;;;;;497292;239;1128;-69
2021/04/18 03:08:08;;;;;;;;;;;21.20;29.80;;;;;;497374;239;1181;-69
2021/04/18 03:10:09;;;;;;;;;;;21.30;29.80;;;;;;497334;239;973;-69
2021/04/18 03:12:10;;;;;;;;;;;21.20;29.90;;;;;;497300;239;1094;-70
2021/04/18 03:14:12;;;;;;;;;;;21.10;29.90;;;;;;497275;238;1076;-69
2021/04/18 03:16:13;;;;;;;;;;;21.20;29.90;;;;;;497298;240;1195;-69
2021/04/18 03:18:14;;;;;;;;;;;21.20;29.90;;;;;;497284;239;2185;-69
2021/04/18 03:20:15;;;;;;;;;;;21.20;30.00;;;;;;497327;239;940;-69
2021/04/18 03:22:17;;;;;;;;;;;21.10;30.00;;;;;;497292;239;1160;-69
2021/04/18 03:24:18;;;;;;;;;;;21.10;30.00;;;;;;497309;239;1037;-70
2021/04/18 03:26:19;;;;;;;;;;;21.20;30.00;;;;;;497302;239;1170;-70
2021/04/18 03:28:20;;;;;;;;;;;21.20;29.90;;;;;;497330;239;1023;-69
2021/04/18 03:30:22;;;;;;;;;;;21.30;30.00;;;;;;497289;240;943;-69
2021/04/18 03:32:23;;;;;;;;;;;21.20;30.00;;;;;;497341;239;1073;-69
2021/04/18 03:34:24;;;;;;;;;;;21.20;30.00;;;;;;497304;238;1159;-69
2021/04/18 03:36:26;;;;;;;;;;;21.30;29.90;;;;;;497347;239;1007;-69
2021/04/18 03:38:27;;;;;;;;;;;21.30;29.80;;;;;;497309;239;2197;-70
2021/04/18 03:40:28;;;;;;;;;;;21.30;29.80;;;;;;497312;239;1037;-69
2021/04/18 03:42:29;;;;;;;;;;;21.30;29.80;;;;;;497413;239;1067;-69
2021/04/18 03:44:31;;;;;;;;;;;21.20;29.90;;;;;;497290;239;1104;-69
2021/04/18 03:46:32;;;;;;;;;;;21.20;29.90;;;;;;497333;239;1087;-69
2021/04/18 03:48:33;;;;;;;;;;;21.20;29.90;;;;;;497293;239;1034;-69
2021/04/18 03:50:35;;;;;;;;;;;21.10;30.00;;;;;;497250;239;1175;-69
2021/04/18 03:52:36;;;;;;;;;;;21.10;30.00;;;;;;497159;239;1186;-70
2021/04/18 03:54:37;;;;;;;;;;;21.20;30.00;;;;;;497299;239;942;-69
2021/04/18 03:56:39;;;;;;;;;;;21.30;29.90;;;;;;497164;239;1212;-69
2021/04/18 03:58:40;;;;;;;;;;;21.20;30.00;;;;;;497411;239;2137;-69
2021/04/18 04:00:41;;;;;;;;;;;21.20;29.90;;;;;;497364;239;1267;-69
2021/04/18 04:02:43;;;;;;;;;;;21.20;29.90;;;;;;497161;239;1213;-69
2021/04/18 04:04:44;;;;;;;;;;;21.20;29.90;;;;;;497334;239;992;-69
2021/04/18 04:06:45;;;;;;;;;;;21.20;30.00;;;;;;497232;239;1196;-69
2021/04/18 04:08:46;;;;;;;;;;;21.10;30.00;;;;;;497343;239;1203;-69
2021/04/18 04:10:49;;;;;;;;;;;21.10;30.00;;;;;;497400;239;980;-70
2021/04/18 04:12:51;;;;;;;;;;;21.10;30.00;;;;;;497421;239;1015;-69
2021/04/18 04:14:52;;;;;;;;;;;21.10;30.00;;;;;;497332;239;962;-69
2021/04/18 04:16:53;;;;;;;;;;;21.20;30.00;;;;;;497322;239;1073;-70
2021/04/18 04:18:56;;;;;;;;;;;21.10;30.00;;;;;;497142;239;2145;-69
2021/04/18 04:20:56;;;;;;;;;;;21.10;30.00;;;;;;497282;239;1366;-69
2021/04/18 04:22:57;;;;;;;;;;;21.10;30.00;;;;;;497298;239;1288;-69
2021/04/18 04:24:58;;;;;;;;;;;21.10;30.00;;;;;;497305;239;1097;-69
2021/04/18 04:27:00;;;;;;;;;;;21.10;30.00;;;;;;497266;239;1052;-69
2021/04/18 04:29:01;;;;;;;;;;;21.10;29.90;;;;;;497307;239;1043;-69
2021/04/18 04:31:02;;;;;;;;;;;21.20;29.90;;;;;;497347;239;982;-69
2021/04/18 04:33:04;;;;;;;;;;;21.20;29.90;;;;;;497349;239;1019;-69
2021/04/18 04:35:05;;;;;;;;;;;21.20;29.90;;;;;;497376;239;1011;-69
2021/04/18 04:37:06;;;;;;;;;;;21.10;30.00;;;;;;497317;239;1000;-69
2021/04/18 04:39:07;;;;;;;;;;;21.10;29.90;;;;;;497257;239;2201;-69
2021/04/18 04:41:09;;;;;;;;;;;21.10;30.00;;;;;;497338;239;1104;-69
2021/04/18 04:43:10;;;;;;;;;;;21.20;29.90;;;;;;497387;239;1069;-69
2021/04/18 04:45:11;;;;;;;;;;;21.10;30.00;;;;;;497335;239;990;-69
2021/04/18 04:47:13;;;;;;;;;;;21.10;30.00;;;;;;497311;239;1145;-69
2021/04/18 04:49:14;;;;;;;;;;;21.00;30.00;;;;;;497320;239;1013;-69
2021/04/18 04:51:15;;;;;;;;;;;21.10;30.00;;;;;;497213;239;1162;-69
2021/04/18 04:53:16;;;;;;;;;;;21.30;29.90;;;;;;497275;239;1233;-69
2021/04/18 04:55:18;;;;;;;;;;;21.20;29.90;;;;;;497254;239;1155;-69
2021/04/18 04:57:19;;;;;;;;;;;21.10;29.90;;;;;;497332;239;1198;-70
2021/04/18 04:59:20;;;;;;;;;;;21.10;30.00;;;;;;497300;239;2186;-69
2021/04/18 05:01:21;;;;;;;;;;;21.10;30.00;;;;;;497340;239;1103;-69
2021/04/18 05:03:25;;;;;;;;;;;21.10;30.00;;;;;;497362;239;1191;-70
2021/04/18 05:05:24;;;;;;;;;;;21.10;30.00;;;;;;497248;239;1334;-71
2021/04/18 05:07:26;;;;;;;;;;;21.10;30.00;;;;;;497382;239;973;-69
2021/04/18 05:09:27;;;;;;;;;;;21.00;30.00;;;;;;497331;239;1130;-69
2021/04/18 05:11:28;;;;;;;;;;;21.00;30.00;;;;;;497328;239;1120;-69
2021/04/18 05:13:30;;;;;;;;;;;21.10;30.00;;;;;;497257;239;1007;-69
2021/04/18 05:15:31;;;;;;;;;;;21.10;30.00;;;;;;497269;239;1031;-69
2021/04/18 05:17:33;;;;;;;;;;;21.20;30.00;;;;;;497383;239;1032;-70
2021/04/18 05:19:34;;;;;;;;;;;21.10;30.00;;;;;;497357;240;2145;-69
2021/04/18 05:21:35;;;;;;;;;;;21.10;30.00;;;;;;497309;239;1105;-69
2021/04/18 05:23:37;;;;;;;;;;;21.10;30.00;;;;;;497320;239;1183;-69
2021/04/18 05:25:38;;;;;;;;;;;21.10;30.00;;;;;;497301;239;1188;-70
2021/04/18 05:27:39;;;;;;;;;;;21.10;30.00;;;;;;497308;239;1036;-69
2021/04/18 05:29:40;;;;;;;;;;;21.00;30.10;;;;;;497299;239;982;-70
2021/04/18 05:31:42;;;;;;;;;;;21.00;30.00;;;;;;497284;239;1178;-70
2021/04/18 05:33:43;;;;;;;;;;;21.10;30.10;;;;;;497322;240;1071;-70
2021/04/18 05:35:44;;;;;;;;;;;21.10;30.10;;;;;;497385;239;1075;-69
2021/04/18 05:37:46;;;;;;;;;;;21.00;30.10;;;;;;497289;239;1070;-69
2021/04/18 05:39:47;;;;;;;;;;;21.10;30.10;;;;;;497302;239;2161;-69
2021/04/18 05:41:48;;;;;;;;;;;21.00;30.10;;;;;;497290;239;1198;-69
2021/04/18 05:43:49;;;;;;;;;;;21.00;30.20;;;;;;497359;239;1088;-69
2021/04/18 05:45:51;;;;;;;;;;;21.00;30.20;;;;;;497202;239;1201;-69
2021/04/18 05:47:52;;;;;;;;;;;21.00;30.20;;;;;;497310;239;1093;-69
2021/04/18 05:49:53;;;;;;;;;;;21.10;30.10;;;;;;497350;239;1006;-69
2021/04/18 05:51:55;;;;;;;;;;;21.10;30.20;;;;;;497261;239;1171;-69
2021/04/18 05:53:56;;;;;;;;;;;21.10;30.20;;;;;;497225;239;1094;-69
2021/04/18 05:55:57;;;;;;;;;;;21.10;30.20;;;;;;497268;239;1130;-69
2021/04/18 05:57:58;;;;;;;;;;;21.00;30.20;;;;;;497245;239;1257;-69
2021/04/18 06:00:00;;;;;;;;;;;21.00;30.10;;;;;;497298;239;2145;-69
2021/04/18 06:02:01;;;;;;;;;;;21.00;30.20;;;;;;497231;239;1076;-69
2021/04/18 06:04:02;;;;;;;;;;;21.10;30.30;;;;;;497262;239;980;-69
2021/04/18 06:06:03;;;;;;;;;;;21.00;30.30;;;;;;497291;239;973;-69
2021/04/18 06:08:05;;;;;;;;;;;21.20;30.00;;;;;;497289;239;1081;-69
2021/04/18 06:10:06;;;;;;;;;;;21.10;30.10;;;;;;497270;240;1075;-69
2021/04/18 06:12:07;;;;;;;;;;;21.10;30.10;;;;;;497352;239;1013;-69
2021/04/18 06:14:09;;;;;;;;;;;21.00;30.20;;;;;;497266;238;976;-69
2021/04/18 06:16:10;;;;;;;;;;;21.10;30.20;;;;;;497312;239;1131;-69
2021/04/18 06:18:11;;;;;;;;;;;21.10;30.30;;;;;;497263;239;1023;-69
2021/04/18 06:20:12;;;;;;;;;;;21.00;30.30;;;;;;497234;239;2185;-69
2021/04/18 06:22:14;;;;;;;;;;;21.00;30.20;;;;;;497314;239;1071;-69
2021/04/18 06:24:15;;;;;;;;;;;21.00;30.20;;;;;;497329;239;1290;-69
2021/04/18 06:26:16;;;;;;;;;;;21.00;30.20;;;;;;497218;239;1065;-69
2021/04/18 06:28:18;;;;;;;;;;;21.10;30.30;;;;;;497282;239;1072;-69
2021/04/18 06:30:19;;;;;;;;;;;21.00;30.40;;;;;;497273;239;990;-70
2021/04/18 06:32:20;;;;;;;;;;;21.00;30.30;;;;;;497316;239;1188;-69
2021/04/18 06:34:23;;;;;;;;;;;21.10;30.30;;;;;;497260;239;1126;-69
2021/04/18 06:36:23;;;;;;;;;;;21.00;30.30;;;;;;497229;239;1209;-69
2021/04/18 06:38:24;;;;;;;;;;;21.00;30.30;;;;;;497346;239;1066;-70
2021/04/18 06:40:26;;;;;;;;;;;21.00;30.40;;;;;;497312;239;2201;-69
2021/04/18 06:42:27;;;;;;;;;;;21.00;30.30;;;;;;497399;239;1157;-69
2021/04/18 06:44:28;;;;;;;;;;;21.10;30.20;;;;;;497329;239;960;-69
2021/04/18 06:46:30;;;;;;;;;;;21.10;30.20;;;;;;497294;239;1112;-70
2021/04/18 06:48:31;;;;;;;;;;;21.10;30.30;;;;;;497276;239;1192;-69
2021/04/18 06:50:32;;;;;;;;;;;21.10;30.20;;;;;;497282;239;1052;-69
2021/04/18 06:52:33;;;;;;;;;;;21.20;30.20;;;;;;497235;239;1014;-69
2021/04/18 06:54:35;;;;;;;;;;;21.10;30.30;;;;;;497241;239;1127;-69
2021/04/18 06:56:36;;;;;;;;;;;21.00;30.40;;;;;;497188;240;1195;-69
2021/04/18 06:58:37;;;;;;;;;;;21.10;30.30;;;;;;497291;239;1031;-69
2021/04/18 07:00:39;;;;;;;;;;;21.10;30.40;;;;;;497305;239;2181;-69
2021/04/18 07:02:40;;;;;;;;;;;21.00;30.50;;;;;;497325;239;1034;-69
2021/04/18 07:04:41;;;;;;;;;;;21.10;30.50;;;;;;497342;239;1028;-69
2021/04/18 07:06:42;;;;;;;;;;;21.10;30.40;;;;;;497365;239;1221;-69
2021/04/18 07:08:44;;;;;;;;;;;21.10;30.60;;;;;;497269;239;1008;-69
2021/04/18 07:10:45;;;;;;;;;;;21.00;30.60;;;;;;497312;239;1172;-69
2021/04/18 07:12:46;;;;;;;;;;;21.00;30.50;;;;;;497191;239;996;-69
2021/04/18 07:14:48;;;;;;;;;;;21.10;30.60;;;;;;497216;239;1010;-69
2021/04/18 07:16:49;;;;;;;;;;;21.10;30.60;;;;;;497251;239;1205;-69
2021/04/18 07:18:50;;;;;;;;;;;21.00;30.60;;;;;;497244;238;1268;-69
2021/04/18 07:20:51;;;;;;;;;;;21.00;30.60;;;;;;497280;239;2122;-69
2021/04/18 07:22:53;;;;;;;;;;;21.10;30.60;;;;;;497372;239;1089;-69
2021/04/18 07:24:54;;;;;;;;;;;21.10;30.60;;;;;;497328;239;1143;-69
2021/04/18 07:26:56;;;;;;;;;;;21.10;30.60;;;;;;497246;239;1236;-69
2021/04/18 07:28:57;;;;;;;;;;;21.20;30.60;;;;;;497265;239;970;-69
2021/04/18 07:31:02;;;;;;;;;;;21.10;30.70;;;;;;497179;239;1267;-70
2021/04/18 07:33:00;;;;;;;;;;;21.10;30.70;;;;;;497179;239;1304;-69
2021/04/18 07:35:02;;;;;;;;;;;21.20;30.60;;;;;;497276;239;984;-69
2021/04/18 07:37:03;;;;;;;;;;;21.30;30.60;;;;;;497146;239;1203;-69
2021/04/18 07:39:05;;;;;;;;;;;21.20;30.60;;;;;;497233;239;1064;-69
2021/04/18 07:41:05;;;;;;;;;;;21.30;30.60;;;;;;497267;239;2189;-69
2021/04/18 07:43:06;;;;;;;;;;;21.20;30.60;;;;;;497240;239;1085;-69
2021/04/18 07:45:08;;;;;;;;;;;21.20;30.60;;;;;;497253;239;1153;-69
2021/04/18 07:47:09;;;;;;;;;;;21.20;30.70;;;;;;497270;239;1072;-69
2021/04/18 07:49:10;;;;;;;;;;;21.30;30.70;;;;;;497269;239;975;-69
2021/04/18 07:51:12;;;;;;;;;;;21.30;30.60;;;;;;497287;239;981;-69
2021/04/18 07:53:13;;;;;;;;;;;21.30;30.60;;;;;;497301;239;1107;-69
2021/04/18 07:55:14;;;;;;;;;;;21.30;30.60;;;;;;497259;239;1192;-69
2021/04/18 07:57:15;;;;;;;;;;;21.30;30.50;;;;;;497324;239;1102;-69
2021/04/18 07:59:17;;;;;;;;;;;21.30;30.50;;;;;;497382;239;973;-69
2021/04/18 08:01:18;;;;;;;;;;;21.30;30.50;;;;;;497285;239;2184;-69
2021/04/18 08:03:19;;;;;;;;;;;21.40;30.60;;;;;;497345;239;991;-69
2021/04/18 08:05:22;;;;;;;;;;;21.30;30.50;;;;;;497291;239;1068;-69
2021/04/18 08:07:22;;;;;;;;;;;21.40;30.50;;;;;;497259;239;1439;-69
2021/04/18 08:09:23;;;;;;;;;;;21.50;30.40;;;;;;497244;239;1159;-69
2021/04/18 08:11:24;;;;;;;;;;;21.40;30.30;;;;;;497332;239;1214;-69
2021/04/18 08:13:26;;;;;;;;;;;21.40;30.40;;;;;;497316;239;1033;-69
2021/04/18 08:15:27;;;;;;;;;;;21.40;30.40;;;;;;497259;239;1090;-69
2021/04/18 08:17:28;;;;;;;;;;;21.40;30.60;;;;;;497288;239;1060;-69
2021/04/18 08:19:29;;;;;;;;;;;21.40;30.50;;;;;;497343;239;1079;-69
2021/04/18 08:21:32;;;;;;;;;;;21.40;30.70;;;;;;497265;239;2173;-69
2021/04/18 08:23:32;;;;;;;;;;;21.40;30.60;;;;;;497288;239;1399;-69
2021/04/18 08:25:33;;;;;;;;;;;21.40;30.50;;;;;;497327;239;1140;-69
2021/04/18 08:27:35;;;;;;;;;;;21.50;30.40;;;;;;497305;239;1087;-69
2021/04/18 08:29:36;;;;;;;;;;;21.50;30.40;;;;;;497314;239;1030;-69
2021/04/18 08:31:37;;;;;;;;;;;21.50;30.50;;;;;;497322;239;1048;-69
2021/04/18 08:33:39;;;;;;;;;;;21.40;30.50;;;;;;497350;239;1042;-69
2021/04/18 08:35:40;;;;;;;;;;;21.40;30.60;;;;;;497273;239;944;-69
2021/04/18 08:37:41;;;;;;;;;;;21.50;30.50;;;;;;497350;239;1146;-69
2021/04/18 08:39:42;;;;;;;;;;;21.50;30.60;;;;;;497314;239;1048;-69
2021/04/18 08:41:44;;;;;;;;;;;21.50;30.40;;;;;;497351;239;2228;-69
2021/04/18 08:43:45;;;;;;;;;;;21.50;30.50;;;;;;497293;240;1085;-70
2021/04/18 08:45:46;;;;;;;;;;;21.60;30.40;;;;;;497267;239;1227;-69
2021/04/18 08:47:48;;;;;;;;;;;21.60;30.50;;;;;;497343;239;1171;-69
2021/04/18 08:49:49;;;;;;;;;;;21.50;30.50;;;;;;497401;239;970;-69
2021/04/18 08:51:50;;;;;;;;;;;21.50;30.60;;;;;;497322;239;1238;-69
2021/04/18 08:53:51;;;;;;;;;;;21.40;30.80;;;;;;497232;239;1128;-69
2021/04/18 08:55:53;;;;;;;;;;;21.30;30.80;;;;;;497151;239;1250;-69
2021/04/18 08:57:54;;;;;;;;;;;21.30;30.90;;;;;;497382;239;1103;-69
2021/04/18 08:59:56;;;;;;;;;;;21.40;30.90;;;;;;497325;239;1134;-69
2021/04/18 09:01:58;;;;;;;;;;;21.20;31.00;;;;;;497292;239;2180;-69
2021/04/18 09:03:59;;;;;;;;;;;21.20;31.10;;;;;;497272;239;1023;-69
2021/04/18 09:06:00;;;;;;;;;;;21.30;31.10;;;;;;497219;239;1284;-69
2021/04/18 09:08:01;;;;;;;;;;;21.20;31.10;;;;;;497031;239;1230;-69
2021/04/18 09:10:02;;;;;;;;;;;21.20;31.10;;;;;;497257;239;958;-69
2021/04/18 09:12:04;;;;;;;;;;;21.30;31.10;;;;;;497206;239;1205;-70
2021/04/18 09:14:05;;;;;;;;;;;21.30;31.00;;;;;;497372;239;1125;-69
2021/04/18 09:16:06;;;;;;;;;;;21.30;31.00;;;;;;497190;239;1398;-69
2021/04/18 09:18:09;;;;;;;;;;;21.30;31.00;;;;;;497221;239;1081;-69
2021/04/18 09:20:09;;;;;;;;;;;21.20;31.10;;;;;;497260;239;1291;-70
2021/04/18 09:22:10;;;;;;;;;;;21.30;31.10;;;;;;497274;238;2114;-69
2021/04/18 09:24:11;;;;;;;;;;;21.20;31.20;;;;;;497311;239;1123;-70
2021/04/18 09:26:13;;;;;;;;;;;21.30;31.20;;;;;;497238;239;1298;-69
2021/04/18 09:28:15;;;;;;;;;;;21.30;31.00;;;;;;497259;240;987;-69
2021/04/18 09:30:15;;;;;;;;;;;21.30;31.10;;;;;;497287;240;1408;-69
2021/04/18 09:32:16;;;;;;;;;;;21.20;31.00;;;;;;497296;239;1214;-69
2021/04/18 09:34:18;;;;;;;;;;;21.30;31.00;;;;;;497326;239;1104;-69
2021/04/18 09:36:19;;;;;;;;;;;21.30;31.00;;;;;;497325;239;1077;-69
2021/04/18 09:38:20;;;;;;;;;;;21.30;30.90;;;;;;497336;239;971;-69
2021/04/18 09:40:23;;;;;;;;;;;21.40;30.90;;;;;;497255;239;2146;-70
2021/04/18 09:42:23;;;;;;;;;;;21.30;30.90;;;;;;497252;239;1398;-70
2021/04/18 09:44:28;;;;;;;;;;;21.40;30.80;;;;;;497176;240;1063;-69
2021/04/18 09:46:29;;;;;;;;;;;21.30;30.80;;;;;;497249;239;1251;-70
2021/04/18 09:48:30;;;;;;;;;;;21.40;30.90;;;;;;497345;239;1157;-69
2021/04/18 09:50:32;;;;;;;;;;;21.40;30.70;;;;;;497314;239;1152;-69
2021/04/18 09:52:33;;;;;;;;;;;21.40;30.70;;;;;;497320;239;1399;-70
2021/04/18 09:54:34;;;;;;;;;;;21.40;30.80;;;;;;497255;239;1021;-70
2021/04/18 09:56:35;;;;;;;;;;;21.40;30.70;;;;;;497155;239;1278;-69
2021/04/18 09:58:37;;;;;;;;;;;21.40;30.80;;;;;;497314;239;1013;-70
2021/04/18 10:00:38;;;;;;;;;;;21.40;30.70;;;;;;497295;239;2170;-70
2021/04/18 10:02:40;;;;;;;;;;;21.40;30.70;;;;;;497231;239;1101;-69
2021/04/18 10:04:41;;;;;;;;;;;21.40;30.80;;;;;;497333;239;992;-69
2021/04/18 10:06:42;;;;;;;;;;;21.40;30.80;;;;;;497157;240;1162;-69
2021/04/18 10:08:43;;;;;;;;;;;21.40;30.80;;;;;;497282;239;1071;-70
2021/04/18 10:10:45;;;;;;;;;;;21.50;30.70;;;;;;497300;239;1058;-70
2021/04/18 10:12:46;;;;;;;;;;;21.60;30.60;;;;;;497151;239;1084;-70
2021/04/18 10:14:47;;;;;;;;;;;21.60;30.50;;;;;;497244;239;1066;-69
2021/04/18 10:16:49;;;;;;;;;;;21.50;30.60;;;;;;497183;239;1173;-69
2021/04/18 10:18:50;;;;;;;;;;;21.40;30.70;;;;;;497256;239;1006;-70
2021/04/18 10:20:51;;;;;;;;;;;21.60;30.60;;;;;;497283;239;2138;-69
2021/04/18 10:22:53;;;;;;;;;;;21.70;30.50;;;;;;497192;240;1293;-69
2021/04/18 10:24:55;;;;;;;;;;;21.80;30.40;;;;;;497434;239;983;-70
2021/04/18 10:26:55;;;;;;;;;;;21.80;30.30;;;;;;497207;239;1404;-70
2021/04/18 10:28:56;;;;;;;;;;;21.90;30.20;;;;;;497311;239;1015;-70
2021/04/18 10:30:58;;;;;;;;;;;21.90;30.10;;;;;;497286;239;1225;-69
2021/04/18 10:32:59;;;;;;;;;;;21.90;30.10;;;;;;497230;239;1029;-69
2021/04/18 10:35:00;;;;;;;;;;;21.90;30.00;;;;;;497290;239;1057;-69
2021/04/18 10:37:03;;;;;;;;;;;22.10;29.90;;;;;;497264;239;1213;-69
2021/04/18 10:39:03;;;;;;;;;;;22.00;29.90;;;;;;497078;238;1250;-69
2021/04/18 10:41:04;;;;;;;;;;;22.10;29.90;;;;;;497176;239;2197;-70
2021/04/18 10:43:07;;;;;;;;;;;22.20;29.70;;;;;;497304;239;1134;-69
2021/04/18 10:45:08;;;;;;;;;;;22.20;29.60;;;;;;497227;239;1405;-70
2021/04/18 10:47:11;;;;;;;;;;;22.20;29.60;;;;;;497300;239;1598;-69
2021/04/18 10:49:10;;;;;;;;;;;22.20;29.60;;;;;;497190;239;1391;-69
2021/04/18 10:51:11;;;;;;;;;;;22.30;29.70;;;;;;497342;239;1251;-70
2021/04/18 10:53:12;;;;;;;;;;;22.20;29.70;;;;;;497285;239;1137;-69
2021/04/18 10:55:14;;;;;;;;;;;22.20;29.70;;;;;;497398;239;1029;-69
2021/04/18 10:57:15;;;;;;;;;;;22.20;29.60;;;;;;497287;239;1182;-70
2021/04/18 10:59:16;;;;;;;;;;;22.20;29.60;;;;;;497337;239;967;-70
2021/04/18 11:01:18;;;;;;;;;;;22.20;29.60;;;;;;497311;239;2181;-70
2021/04/18 11:03:19;;;;;;;;;;;22.20;29.60;;;;;;497341;239;1139;-70
2021/04/18 11:05:20;;;;;;;;;;;22.20;29.50;;;;;;497276;239;1143;-70
2021/04/18 11:07:21;;;;;;;;;;;22.30;29.50;;;;;;497348;239;1105;-70
2021/04/18 11:09:23;;;;;;;;;;;22.30;29.50;;;;;;497280;239;1213;-69
2021/04/18 11:11:25;;;;;;;;;;;22.30;29.40;;;;;;497253;239;1118;-70
2021/04/18 11:13:26;;;;;;;;;;;22.30;29.40;;;;;;497311;239;1523;-69
2021/04/18 11:15:27;;;;;;;;;;;22.30;29.50;;;;;;497342;239;1012;-69
2021/04/18 11:17:28;;;;;;;;;;;22.30;29.40;;;;;;497270;239;1051;-70
2021/04/18 11:19:29;;;;;;;;;;;22.30;29.30;;;;;;497266;239;1053;-69
2021/04/18 11:21:31;;;;;;;;;;;22.30;29.50;;;;;;497200;239;2196;-69
2021/04/18 11:23:32;;;;;;;;;;;22.30;29.50;;;;;;497409;239;1178;-69
2021/04/18 11:25:33;;;;;;;;;;;22.20;29.40;;;;;;497274;239;1048;-69
2021/04/18 11:27:35;;;;;;;;;;;22.30;29.40;;;;;;497289;239;1122;-69
2021/04/18 11:29:36;;;;;;;;;;;22.30;29.40;;;;;;497299;239;974;-69
2021/04/18 11:31:37;;;;;;;;;;;22.30;29.40;;;;;;497227;239;1044;-69
2021/04/18 11:33:38;;;;;;;;;;;22.30;29.30;;;;;;497311;239;1199;-69
2021/04/18 11:35:40;;;;;;;;;;;22.40;29.30;;;;;;497335;239;1440;-70
2021/04/18 11:37:41;;;;;;;;;;;22.40;29.30;;;;;;497318;239;1086;-70
2021/04/18 11:39:42;;;;;;;;;;;22.30;29.30;;;;;;497290;239;960;-70
2021/04/18 11:41:44;;;;;;;;;;;22.30;29.30;;;;;;497230;240;2153;-69
2021/04/18 11:43:45;;;;;;;;;;;22.30;29.30;;;;;;497313;238;1185;-70
2021/04/18 11:45:46;;;;;;;;;;;22.30;29.30;;;;;;497389;239;1182;-70
2021/04/18 11:47:48;;;;;;;;;;;22.40;29.20;;;;;;497342;239;1046;-70
2021/04/18 11:49:49;;;;;;;;;;;22.50;29.10;;;;;;497282;239;993;-70
2021/04/18 11:51:50;;;;;;;;;;;22.40;29.10;;;;;;497174;239;1289;-70
2021/04/18 11:53:52;;;;;;;;;;;22.40;29.10;;;;;;497337;239;989;-70
2021/04/18 11:55:53;;;;;;;;;;;22.40;29.10;;;;;;497354;239;986;-70